createdAt,value
2023-12-07T00:01:41.665Z,100204.62
2023-12-07T00:04:44.623Z,100201.09
2023-12-07T00:07:47.179Z,100209.19
2023-12-07T00:10:49.848Z,100205.63
2023-12-07T00:13:52.237Z,100209.16
2023-12-07T00:16:55.254Z,100206.59
2023-12-07T00:19:57.624Z,100206.66
2023-12-07T00:23:00.314Z,100202.28
2023-12-07T00:26:02.720Z,100211.19
2023-12-07T00:29:05.436Z,100201.59
2023-12-07T00:32:07.839Z,100197.25
2023-12-07T00:35:11.340Z,100200.84
2023-12-07T00:38:13.787Z,100207.88
2023-12-07T00:41:16.429Z,100217.59
2023-12-07T00:44:18.797Z,100217.56
2023-12-07T00:47:21.440Z,100218.47
2023-12-07T00:50:23.813Z,100217.59
2023-12-07T00:53:26.432Z,100215.34
2023-12-07T00:56:28.804Z,100217.09
2023-12-07T00:59:35.073Z,100214.44
2023-12-07T01:02:37.772Z,100213.66
2023-12-07T01:05:40.756Z,100223.31
2023-12-07T01:08:44.186Z,100217.00
2023-12-07T01:11:46.840Z,100224.09
2023-12-07T01:14:49.235Z,100225.12
2023-12-07T01:17:53.756Z,100222.53
2023-12-07T01:20:57.228Z,100213.53
2023-12-07T01:24:10.198Z,100221.53
2023-12-07T01:27:15.901Z,100205.38
2023-12-07T01:30:18.648Z,100222.53
2023-12-07T01:33:21.471Z,100221.78
2023-12-07T01:36:24.194Z,100228.88
2023-12-07T01:39:26.788Z,100231.50
2023-12-07T01:42:29.458Z,100223.53
2023-12-07T01:45:31.917Z,100223.63
2023-12-07T01:48:34.727Z,100225.44
2023-12-07T01:51:37.530Z,100229.06
2023-12-07T01:54:40.309Z,100228.22
2023-12-07T01:57:44.545Z,100222.88
2023-12-07T02:00:48.335Z,100223.66
2023-12-07T02:03:51.147Z,100218.22
2023-12-07T02:07:00.184Z,100230.44
2023-12-07T02:10:02.954Z,100226.28
2023-12-07T02:13:06.260Z,100229.00
2023-12-07T02:16:15.062Z,100219.28
2023-12-07T02:19:56.326Z,100225.34
2023-12-07T02:23:03.509Z,100227.34
2023-12-07T02:26:22.788Z,100223.03
2023-12-07T02:29:25.291Z,100223.19
2023-12-07T02:32:27.969Z,100225.84
2023-12-07T02:35:31.012Z,100225.97
2023-12-07T02:38:34.183Z,100230.47
2023-12-07T02:41:37.427Z,100234.91
2023-12-07T02:44:40.619Z,100231.62
2023-12-07T02:47:44.678Z,100237.03
2023-12-07T02:50:47.619Z,100227.94
2023-12-07T02:53:49.961Z,100244.75
2023-12-07T02:56:52.592Z,100252.03
2023-12-07T02:59:54.928Z,100249.47
2023-12-07T03:02:57.592Z,100249.41
2023-12-07T03:06:00.038Z,100242.31
2023-12-07T03:09:02.989Z,100251.16
2023-12-07T03:12:05.938Z,100245.75
2023-12-07T03:15:10.759Z,100253.75
2023-12-07T03:18:13.253Z,100248.38
2023-12-07T03:21:16.004Z,100257.37
2023-12-07T03:24:18.369Z,100249.44
2023-12-07T03:27:21.854Z,100255.47
2023-12-07T03:30:24.241Z,100258.19
2023-12-07T03:33:27.023Z,100252.09
2023-12-07T03:36:31.760Z,100252.19
2023-12-07T03:39:35.460Z,100244.03
2023-12-07T03:42:50.858Z,100250.50
2023-12-07T03:45:59.293Z,100254.00
2023-12-07T03:49:01.857Z,100262.00
2023-12-07T03:52:04.900Z,100262.75
2023-12-07T03:55:07.987Z,100269.09
2023-12-07T03:58:10.734Z,100264.56
2023-12-07T04:01:13.201Z,100270.72
2023-12-07T04:04:16.207Z,100277.87
2023-12-07T04:07:18.644Z,100279.56
2023-12-07T04:10:21.320Z,100283.09
2023-12-07T04:13:23.734Z,100288.37
2023-12-07T04:16:27.127Z,100295.50
2023-12-07T04:19:29.544Z,100295.50
2023-12-07T04:22:32.751Z,100296.53
2023-12-07T04:25:35.209Z,100295.88
2023-12-07T04:28:38.430Z,100286.12
2023-12-07T04:31:40.875Z,100295.88
2023-12-07T04:34:43.558Z,100291.63
2023-12-07T04:37:46.024Z,100291.78
2023-12-07T04:40:48.754Z,100298.88
2023-12-07T04:43:51.399Z,100304.19
2023-12-07T04:46:54.045Z,100302.50
2023-12-07T04:49:56.468Z,100307.81
2023-12-07T04:52:59.072Z,100311.50
2023-12-07T04:56:01.550Z,100322.00
2023-12-07T04:59:04.238Z,100321.25
2023-12-07T05:02:07.366Z,100332.69
2023-12-07T05:05:10.303Z,100325.69
2023-12-07T05:08:12.757Z,100336.97
2023-12-07T05:11:15.547Z,100338.00
2023-12-07T05:14:18.051Z,100334.59
2023-12-07T05:17:20.715Z,100345.28
2023-12-07T05:20:25.270Z,100339.00
2023-12-07T05:23:28.000Z,100344.38
2023-12-07T05:26:33.864Z,100347.97
2023-12-07T05:29:39.508Z,100351.56
2023-12-07T05:32:42.188Z,100345.37
2023-12-07T05:35:44.966Z,100359.72
2023-12-07T05:38:47.310Z,100359.78
2023-12-07T05:41:50.021Z,100365.87
2023-12-07T05:44:52.493Z,100365.84
2023-12-07T05:47:55.384Z,100377.28
2023-12-07T05:50:57.788Z,100368.34
2023-12-07T05:54:00.428Z,100392.47
2023-12-07T05:57:03.212Z,100383.47
2023-12-07T06:00:10.430Z,100381.81
2023-12-07T06:03:14.816Z,100389.66
2023-12-07T06:06:17.437Z,100390.31
2023-12-07T06:09:19.968Z,100394.66
2023-12-07T06:12:27.660Z,100395.34
2023-12-07T06:15:31.812Z,100395.25
2023-12-07T06:18:35.043Z,100400.38
2023-12-07T06:21:37.689Z,100393.56
2023-12-07T06:24:40.680Z,100398.84
2023-12-07T06:27:43.205Z,100406.75
2023-12-07T06:30:46.232Z,100398.75
2023-12-07T06:33:49.242Z,100416.34
2023-12-07T06:36:51.924Z,100420.56
2023-12-07T06:39:54.395Z,100424.09
2023-12-07T06:42:57.097Z,100422.47
2023-12-07T06:45:59.634Z,100433.91
2023-12-07T06:49:02.649Z,100425.00
2023-12-07T06:52:05.570Z,100423.97
2023-12-07T06:55:10.502Z,100435.59
2023-12-07T06:58:13.132Z,100434.75
2023-12-07T07:01:15.985Z,100434.00
2023-12-07T07:04:18.847Z,100435.75
2023-12-07T07:07:21.708Z,100440.19
2023-12-07T07:10:25.729Z,100434.91
2023-12-07T07:13:28.638Z,100446.44
2023-12-07T07:16:31.584Z,100457.81
2023-12-07T07:19:34.644Z,100452.59
2023-12-07T07:22:37.099Z,100441.00
2023-12-07T07:25:40.205Z,100443.69
2023-12-07T07:28:42.741Z,100460.53
2023-12-07T07:31:45.717Z,100456.06
2023-12-07T07:34:48.220Z,100449.97
2023-12-07T07:37:50.976Z,100461.47
2023-12-07T07:40:53.656Z,100464.25
2023-12-07T07:43:56.590Z,100455.34
2023-12-07T07:46:59.052Z,100462.53
2023-12-07T07:50:06.352Z,100473.25
2023-12-07T07:53:08.842Z,100461.88
2023-12-07T07:56:11.526Z,100472.50
2023-12-07T07:59:13.939Z,100471.63
2023-12-07T08:02:16.723Z,100478.81
2023-12-07T08:05:19.441Z,100477.16
2023-12-07T08:08:22.409Z,100486.06
2023-12-07T08:11:25.051Z,100481.81
2023-12-07T08:14:28.745Z,100481.91
2023-12-07T08:17:32.068Z,100484.63
2023-12-07T08:20:34.605Z,100479.50
2023-12-07T08:23:37.320Z,100479.44
2023-12-07T08:26:40.198Z,100476.94
2023-12-07T08:29:42.911Z,100478.59
2023-12-07T08:32:45.397Z,100494.56
2023-12-07T08:35:50.262Z,100484.81
2023-12-07T08:38:52.792Z,100481.41
2023-12-07T08:41:55.503Z,100491.16
2023-12-07T08:44:57.994Z,100499.16
2023-12-07T08:48:00.961Z,100511.56
2023-12-07T08:51:03.498Z,100507.94
2023-12-07T08:54:06.850Z,100509.66
2023-12-07T08:57:09.420Z,100515.91
2023-12-07T09:00:14.359Z,100529.03
2023-12-07T09:03:17.052Z,100519.50
2023-12-07T09:06:20.031Z,100520.53
2023-12-07T09:09:23.504Z,100521.38
2023-12-07T09:12:34.686Z,100524.16
2023-12-07T09:15:40.444Z,100523.44
2023-12-07T09:18:44.235Z,100534.97
2023-12-07T09:21:47.019Z,100520.81
2023-12-07T09:24:49.702Z,100526.22
2023-12-07T09:27:52.584Z,100530.69
2023-12-07T09:30:55.776Z,100536.03
2023-12-07T09:33:58.355Z,100541.38
2023-12-07T09:37:14.498Z,100488.47
2023-12-07T09:40:18.762Z,100525.34
2023-12-07T09:43:21.885Z,100532.37
2023-12-07T09:46:24.980Z,100528.06
2023-12-07T09:49:27.733Z,100533.41
2023-12-07T09:52:30.237Z,100526.38
2023-12-07T09:55:34.681Z,100529.13
2023-12-07T09:58:41.289Z,100516.94
2023-12-07T10:01:44.661Z,100525.00
2023-12-07T10:04:47.435Z,100526.13
2023-12-07T10:07:51.031Z,100519.03
2023-12-07T10:11:11.623Z,100518.16
2023-12-07T10:14:14.633Z,100517.22
2023-12-07T10:17:17.312Z,100508.37
2023-12-07T10:20:27.369Z,100514.44
2023-12-07T10:23:32.992Z,100510.88
2023-12-07T10:26:38.418Z,100514.56
2023-12-07T10:29:41.444Z,100507.47
2023-12-07T10:32:44.028Z,100502.13
2023-12-07T10:35:48.395Z,100499.47
2023-12-07T10:38:53.644Z,100509.25
2023-12-07T10:41:57.969Z,100503.88
2023-12-07T10:45:05.509Z,100514.47
2023-12-07T10:48:12.850Z,100513.50
2023-12-07T10:51:23.319Z,100510.84
2023-12-07T10:54:43.539Z,100510.91
2023-12-07T10:57:47.873Z,100503.69
2023-12-07T11:00:51.003Z,100509.09
2023-12-07T11:03:54.204Z,100508.19
2023-12-07T11:07:03.984Z,100505.50
2023-12-07T11:10:13.863Z,100518.78
2023-12-07T11:13:30.047Z,100525.03
2023-12-07T11:16:39.092Z,100527.66
2023-12-07T11:19:43.116Z,100520.53
2023-12-07T11:22:45.686Z,100522.28
2023-12-07T11:25:49.303Z,100525.81
2023-12-07T11:28:52.490Z,100528.50
2023-12-07T11:32:17.163Z,100524.03
2023-12-07T11:35:22.557Z,100523.28
2023-12-07T11:38:25.256Z,100517.09
2023-12-07T11:41:30.508Z,100518.09
2023-12-07T11:44:36.138Z,100514.38
2023-12-07T11:47:38.718Z,100521.63
2023-12-07T11:50:59.882Z,100527.00
2023-12-07T11:54:02.527Z,100508.44
2023-12-07T11:57:05.817Z,100513.75
2023-12-07T12:00:09.033Z,100517.38
2023-12-07T12:03:12.390Z,100512.13
2023-12-07T12:06:14.889Z,100508.56
2023-12-07T12:09:23.567Z,100516.62
2023-12-07T12:12:34.217Z,100521.09
2023-12-07T12:15:36.985Z,100477.03
2023-12-07T12:18:39.864Z,100522.88
2023-12-07T12:21:44.499Z,100519.41
2023-12-07T12:24:46.982Z,100513.19
2023-12-07T12:27:50.373Z,100527.28
2023-12-07T12:30:53.206Z,100526.28
2023-12-07T12:33:57.742Z,100527.31
2023-12-07T12:37:00.568Z,100525.44
2023-12-07T12:40:07.777Z,100532.53
2023-12-07T12:43:12.115Z,100524.59
2023-12-07T12:46:16.843Z,100535.31
2023-12-07T12:49:19.858Z,100523.81
2023-12-07T12:52:26.778Z,100532.59
2023-12-07T12:55:32.015Z,100519.38
2023-12-07T12:58:34.791Z,100532.59
2023-12-07T13:01:37.672Z,100524.66
2023-12-07T13:04:42.501Z,100526.25
2023-12-07T13:07:46.065Z,100531.53
2023-12-07T13:10:48.767Z,100538.69
2023-12-07T13:13:51.298Z,100535.16
2023-12-07T13:16:54.493Z,100545.72
2023-12-07T13:19:57.062Z,100542.13
2023-12-07T13:22:59.816Z,100548.97
2023-12-07T13:26:02.326Z,100545.44
2023-12-07T13:29:05.055Z,100539.34
2023-12-07T13:32:07.486Z,100551.72
2023-12-07T13:35:11.027Z,100553.41
2023-12-07T13:38:13.543Z,100556.16
2023-12-07T13:41:16.296Z,100556.53
2023-12-07T13:44:25.240Z,100549.72
2023-12-07T13:47:33.386Z,100563.81
2023-12-07T13:50:36.658Z,100561.09
2023-12-07T13:53:39.619Z,100569.94
2023-12-07T13:56:42.073Z,100559.47
2023-12-07T13:59:44.815Z,100576.16
2023-12-07T14:02:47.584Z,100571.81
2023-12-07T14:05:50.724Z,100567.34
2023-12-07T14:08:53.190Z,100586.88
2023-12-07T14:11:56.355Z,100571.69
2023-12-07T14:14:59.148Z,100577.91
2023-12-07T14:18:02.837Z,100572.59
2023-12-07T14:21:13.925Z,100576.25
2023-12-07T14:24:26.481Z,100566.47
2023-12-07T14:27:28.884Z,100581.50
2023-12-07T14:30:32.350Z,100579.66
2023-12-07T14:33:34.958Z,100583.13
2023-12-07T14:36:40.197Z,100584.91
2023-12-07T14:39:42.941Z,100568.94
2023-12-07T14:42:46.862Z,100581.50
2023-12-07T14:45:49.784Z,100584.88
2023-12-07T14:48:52.688Z,100590.09
2023-12-07T14:51:57.447Z,100589.16
2023-12-07T14:55:00.391Z,100596.25
2023-12-07T14:58:02.892Z,100586.56
2023-12-07T15:01:06.035Z,100552.41
2023-12-07T15:04:12.742Z,100588.38
2023-12-07T15:07:20.931Z,100588.25
2023-12-07T15:10:23.295Z,100605.94
2023-12-07T15:13:25.991Z,100598.00
2023-12-07T15:16:28.384Z,100590.00
2023-12-07T15:19:31.103Z,100598.75
2023-12-07T15:22:33.750Z,100603.22
2023-12-07T15:25:36.763Z,100612.03
2023-12-07T15:28:40.896Z,100617.13
2023-12-07T15:31:44.865Z,100621.50
2023-12-07T15:34:47.529Z,100628.47
2023-12-07T15:37:50.355Z,100626.59
2023-12-07T15:40:57.168Z,100633.56
2023-12-07T15:43:59.912Z,100623.69
2023-12-07T15:47:02.431Z,100624.44
2023-12-07T15:50:05.470Z,100625.31
2023-12-07T15:53:08.601Z,100620.69
2023-12-07T15:56:12.069Z,100620.88
2023-12-07T15:59:14.588Z,100616.41
2023-12-07T16:02:18.301Z,100634.03
2023-12-07T16:05:21.343Z,100629.41
2023-12-07T16:08:24.974Z,100630.19
2023-12-07T16:11:27.703Z,100637.25
2023-12-07T16:14:31.563Z,100638.91
2023-12-07T16:17:34.573Z,100641.56
2023-12-07T16:20:38.226Z,100648.50
2023-12-07T16:23:41.067Z,100653.81
2023-12-07T16:26:43.709Z,100647.56
2023-12-07T16:29:46.739Z,100648.44
2023-12-07T16:32:50.674Z,100636.81
2023-12-07T16:35:53.653Z,100645.06
2023-12-07T16:38:56.215Z,100653.25
2023-12-07T16:42:02.355Z,100654.22
2023-12-07T16:45:07.694Z,100652.62
2023-12-07T16:48:10.752Z,100656.16
2023-12-07T16:51:13.918Z,100657.00
2023-12-07T16:54:16.724Z,100657.97
2023-12-07T16:57:19.302Z,100651.31
2023-12-07T17:00:22.111Z,100654.91
2023-12-07T17:03:25.076Z,100657.69
2023-12-07T17:06:27.862Z,100664.81
2023-12-07T17:09:30.416Z,100669.31
2023-12-07T17:12:33.134Z,100673.72
2023-12-07T17:15:35.658Z,100670.78
2023-12-07T17:18:38.549Z,100677.59
2023-12-07T17:21:41.370Z,100646.91
2023-12-07T17:24:44.404Z,100690.53
2023-12-07T17:27:46.843Z,100679.72
2023-12-07T17:30:49.621Z,100685.06
2023-12-07T17:33:52.092Z,100683.44
2023-12-07T17:36:54.847Z,100685.16
2023-12-07T17:39:58.442Z,100686.84
2023-12-07T17:43:01.517Z,100686.03
2023-12-07T17:46:03.986Z,100677.97
2023-12-07T17:49:08.607Z,100685.81
2023-12-07T17:52:11.145Z,100677.81
2023-12-07T17:55:13.944Z,100683.16
2023-12-07T17:58:17.269Z,100671.69
2023-12-07T18:01:22.924Z,100665.56
2023-12-07T18:04:26.046Z,100666.66
2023-12-07T18:07:29.248Z,100663.84
2023-12-07T18:10:32.645Z,100670.97
2023-12-07T18:13:35.057Z,100666.69
2023-12-07T18:16:37.871Z,100666.78
2023-12-07T18:19:40.391Z,100668.50
2023-12-07T18:22:43.300Z,100656.72
2023-12-07T18:25:45.684Z,100668.25
2023-12-07T18:28:48.543Z,100675.28
2023-12-07T18:31:52.636Z,100673.25
2023-12-07T18:34:55.574Z,100660.72
2023-12-07T18:37:58.181Z,100654.50
2023-12-07T18:41:00.928Z,100651.78
2023-12-07T18:44:03.415Z,100656.19
2023-12-07T18:47:06.387Z,100659.59
2023-12-07T18:50:09.494Z,100654.16
2023-12-07T18:53:12.270Z,100652.56
2023-12-07T18:56:16.189Z,100658.78
2023-12-07T18:59:18.897Z,100657.84
2023-12-07T19:02:21.346Z,100670.75
2023-12-07T19:05:24.156Z,100676.78
2023-12-07T19:08:26.697Z,100681.22
2023-12-07T19:11:29.473Z,100676.63
2023-12-07T19:14:31.952Z,100681.16
2023-12-07T19:17:34.690Z,100683.91
2023-12-07T19:20:37.433Z,100678.47
2023-12-07T19:23:40.117Z,100674.06
2023-12-07T19:26:43.222Z,100672.34
2023-12-07T19:29:45.918Z,100679.50
2023-12-07T19:32:49.444Z,100680.44
2023-12-07T19:35:52.525Z,100675.19
2023-12-07T19:38:55.031Z,100671.72
2023-12-07T19:41:58.102Z,100672.59
2023-12-07T19:45:00.942Z,100660.97
2023-12-07T19:48:04.127Z,100669.59
2023-12-07T19:51:06.782Z,100663.16
2023-12-07T19:54:10.902Z,100666.53
2023-12-07T19:57:13.524Z,100674.19
2023-12-07T20:00:18.827Z,100681.84
2023-12-07T20:03:21.963Z,100682.59
2023-12-07T20:06:33.677Z,100682.41
2023-12-07T20:09:39.302Z,100675.88
2023-12-07T20:12:42.239Z,100680.09
2023-12-07T20:15:44.912Z,100686.91
2023-12-07T20:18:48.175Z,100691.94
2023-12-07T20:21:51.189Z,100689.94
2023-12-07T20:24:53.648Z,100678.97
2023-12-07T20:27:56.353Z,100680.38
2023-12-07T20:30:58.815Z,100686.41
2023-12-07T20:34:01.794Z,100696.00
2023-12-07T20:37:04.398Z,100676.97
2023-12-07T20:40:08.023Z,100684.59
2023-12-07T20:43:10.716Z,100680.91
2023-12-07T20:46:13.381Z,100679.56
2023-12-07T20:49:16.053Z,100680.97
2023-12-07T20:52:20.436Z,100679.91
2023-12-07T20:55:22.902Z,100674.50
2023-12-07T20:58:32.804Z,100671.88
2023-12-07T21:01:35.317Z,100673.38
2023-12-07T21:04:38.146Z,100677.72
2023-12-07T21:07:40.548Z,100671.50
2023-12-07T21:10:43.309Z,100667.97
2023-12-07T21:13:45.656Z,100657.13
2023-12-07T21:16:48.382Z,100664.66
2023-12-07T21:19:51.092Z,100638.88
2023-12-07T21:22:54.091Z,100684.31
2023-12-07T21:25:56.509Z,100683.31
2023-12-07T21:28:59.234Z,100681.56
2023-12-07T21:32:01.624Z,100655.31
2023-12-07T21:35:04.842Z,100656.03
2023-12-07T21:38:07.360Z,100661.66
2023-12-07T21:41:11.108Z,100662.50
2023-12-07T21:44:13.501Z,100621.03
2023-12-07T21:47:16.143Z,100666.12
2023-12-07T21:50:18.495Z,100671.72
2023-12-07T21:53:21.163Z,100666.91
2023-12-07T21:56:23.564Z,100661.56
2023-12-07T21:59:26.345Z,100655.50
2023-12-07T22:02:28.892Z,100645.25
2023-12-07T22:05:32.229Z,100653.53
2023-12-07T22:08:34.731Z,100643.75
2023-12-07T22:11:37.514Z,100646.16
2023-12-07T22:14:40.240Z,100652.28
2023-12-07T22:17:43.005Z,100649.72
2023-12-07T22:20:45.742Z,100643.03
2023-12-07T22:23:48.570Z,100645.19
2023-12-07T22:26:51.015Z,100644.72
2023-12-07T22:29:53.942Z,100641.78
2023-12-07T22:32:56.504Z,100643.25
2023-12-07T22:35:59.580Z,100642.66
2023-12-07T22:39:02.550Z,100643.03
2023-12-07T22:42:05.648Z,100643.69
2023-12-07T22:45:09.748Z,100638.97
2023-12-07T22:48:13.289Z,100637.94
2023-12-07T22:51:15.858Z,100638.69
2023-12-07T22:54:18.671Z,100639.94
2023-12-07T22:57:21.137Z,100634.25
2023-12-07T23:00:24.946Z,100634.31
2023-12-07T23:03:27.395Z,100633.06
2023-12-07T23:06:30.140Z,100642.56
2023-12-07T23:09:32.582Z,100642.91
2023-12-07T23:12:36.016Z,100637.06
2023-12-07T23:15:38.441Z,100640.06
2023-12-07T23:18:41.538Z,100631.75
2023-12-07T23:21:43.975Z,100634.59
2023-12-07T23:24:46.738Z,100628.56
2023-12-07T23:27:49.138Z,100629.94
2023-12-07T23:30:53.726Z,100628.75
2023-12-07T23:33:56.279Z,100619.13
2023-12-07T23:36:59.099Z,100626.25
2023-12-07T23:40:01.638Z,100620.53
2023-12-07T23:43:04.363Z,100620.22
2023-12-07T23:46:10.105Z,100620.91
2023-12-07T23:49:12.873Z,100618.34
2023-12-07T23:52:15.276Z,100625.22
2023-12-07T23:55:17.936Z,100631.19
2023-12-07T23:58:20.351Z,100638.59
